sensor_id;sensor_type;location;lat;lon;timestamp;P1;durP1;ratioP1;P2;durP2;ratioP2
2756;SDS011;1386;50.862;6.494;2023-05-16T00:01:17;6.97;;;5.03;;
2756;SDS011;1386;50.862;6.494;2023-05-16T00:03:46;7.70;;;6.17;;
2756;SDS011;1386;50.862;6.494;2023-05-16T00:06:12;8.07;;;5.03;;
2756;SDS011;1386;50.862;6.494;2023-05-16T00:08:41;5.77;;;4.40;;
2756;SDS011;1386;50.862;6.494;2023-05-16T00:11:07;6.43;;;5.00;;
2756;SDS011;1386;50.862;6.494;2023-05-16T00:13:34;8.60;;;5.60;;
2756;SDS011;1386;50.862;6.494;2023-05-16T00:16:01;8.83;;;4.80;;
2756;SDS011;1386;50.862;6.494;2023-05-16T00:18:29;5.80;;;4.17;;
2756;SDS011;1386;50.862;6.494;2023-05-16T00:20:56;5.20;;;4.50;;
2756;SDS011;1386;50.862;6.494;2023-05-16T00:23:23;7.03;;;4.13;;
2756;SDS011;1386;50.862;6.494;2023-05-16T00:25:51;3.50;;;2.80;;
2756;SDS011;1386;50.862;6.494;2023-05-16T00:28:18;3.87;;;2.93;;
2756;SDS011;1386;50.862;6.494;2023-05-16T00:30:45;3.23;;;2.93;;
2756;SDS011;1386;50.862;6.494;2023-05-16T00:33:12;2.90;;;2.60;;
2756;SDS011;1386;50.862;6.494;2023-05-16T00:35:39;2.43;;;2.23;;
2756;SDS011;1386;50.862;6.494;2023-05-16T00:38:06;4.10;;;2.37;;
2756;SDS011;1386;50.862;6.494;2023-05-16T00:40:32;3.93;;;2.43;;
2756;SDS011;1386;50.862;6.494;2023-05-16T00:43:01;2.40;;;2.20;;
2756;SDS011;1386;50.862;6.494;2023-05-16T00:45:27;2.17;;;1.97;;
2756;SDS011;1386;50.862;6.494;2023-05-16T00:47:54;1.97;;;1.53;;
2756;SDS011;1386;50.862;6.494;2023-05-16T00:50:21;1.70;;;1.60;;
2756;SDS011;1386;50.862;6.494;2023-05-16T00:52:48;1.47;;;1.30;;
2756;SDS011;1386;50.862;6.494;2023-05-16T00:55:15;2.83;;;1.80;;
2756;SDS011;1386;50.862;6.494;2023-05-16T00:57:42;2.20;;;1.30;;
2756;SDS011;1386;50.862;6.494;2023-05-16T01:00:11;2.17;;;1.50;;
2756;SDS011;1386;50.862;6.494;2023-05-16T01:02:40;2.33;;;1.73;;
2756;SDS011;1386;50.862;6.494;2023-05-16T01:05:07;1.50;;;1.40;;
2756;SDS011;1386;50.862;6.494;2023-05-16T01:07:34;3.50;;;1.90;;
2756;SDS011;1386;50.862;6.494;2023-05-16T01:10:01;2.83;;;1.53;;
2756;SDS011;1386;50.862;6.494;2023-05-16T01:12:32;2.53;;;1.70;;
2756;SDS011;1386;50.862;6.494;2023-05-16T01:15:03;3.40;;;2.13;;
2756;SDS011;1386;50.862;6.494;2023-05-16T01:17:37;5.00;;;2.53;;
2756;SDS011;1386;50.862;6.494;2023-05-16T01:20:12;5.37;;;2.60;;
2756;SDS011;1386;50.862;6.494;2023-05-16T01:22:51;3.63;;;2.30;;
2756;SDS011;1386;50.862;6.494;2023-05-16T01:25:36;3.33;;;2.37;;
2756;SDS011;1386;50.862;6.494;2023-05-16T01:28:13;5.00;;;2.53;;
2756;SDS011;1386;50.862;6.494;2023-05-16T01:30:42;6.10;;;2.70;;
2756;SDS011;1386;50.862;6.494;2023-05-16T01:33:09;5.67;;;2.60;;
2756;SDS011;1386;50.862;6.494;2023-05-16T01:35:38;5.50;;;2.93;;
2756;SDS011;1386;50.862;6.494;2023-05-16T01:38:14;5.80;;;2.60;;
2756;SDS011;1386;50.862;6.494;2023-05-16T01:40:49;5.33;;;2.50;;
2756;SDS011;1386;50.862;6.494;2023-05-16T01:43:24;4.53;;;2.70;;
2756;SDS011;1386;50.862;6.494;2023-05-16T01:45:59;5.47;;;2.50;;
2756;SDS011;1386;50.862;6.494;2023-05-16T01:48:29;8.27;;;3.00;;
2756;SDS011;1386;50.862;6.494;2023-05-16T01:51:04;10.17;;;3.10;;
2756;SDS011;1386;50.862;6.494;2023-05-16T01:53:32;6.83;;;3.17;;
2756;SDS011;1386;50.862;6.494;2023-05-16T01:56:04;9.30;;;2.90;;
2756;SDS011;1386;50.862;6.494;2023-05-16T01:58:37;6.10;;;2.93;;
2756;SDS011;1386;50.862;6.494;2023-05-16T02:01:06;6.87;;;3.50;;
2756;SDS011;1386;50.862;6.494;2023-05-16T02:03:33;5.83;;;3.40;;
2756;SDS011;1386;50.862;6.494;2023-05-16T02:06:00;6.50;;;3.70;;
2756;SDS011;1386;50.862;6.494;2023-05-16T02:08:27;4.40;;;3.20;;
2756;SDS011;1386;50.862;6.494;2023-05-16T02:10:54;7.60;;;3.20;;
2756;SDS011;1386;50.862;6.494;2023-05-16T02:13:21;4.57;;;2.87;;
2756;SDS011;1386;50.862;6.494;2023-05-16T02:15:49;4.73;;;2.87;;
2756;SDS011;1386;50.862;6.494;2023-05-16T02:18:17;6.63;;;3.43;;
2756;SDS011;1386;50.862;6.494;2023-05-16T02:20:43;6.57;;;3.03;;
2756;SDS011;1386;50.862;6.494;2023-05-16T02:23:11;10.27;;;2.83;;
2756;SDS011;1386;50.862;6.494;2023-05-16T02:25:38;10.47;;;2.93;;
2756;SDS011;1386;50.862;6.494;2023-05-16T02:28:05;6.03;;;3.37;;
2756;SDS011;1386;50.862;6.494;2023-05-16T02:30:32;5.30;;;3.30;;
2756;SDS011;1386;50.862;6.494;2023-05-16T02:33:00;9.33;;;3.37;;
2756;SDS011;1386;50.862;6.494;2023-05-16T02:35:27;11.97;;;3.70;;
2756;SDS011;1386;50.862;6.494;2023-05-16T02:37:54;9.43;;;3.43;;
2756;SDS011;1386;50.862;6.494;2023-05-16T02:40:21;8.27;;;3.43;;
2756;SDS011;1386;50.862;6.494;2023-05-16T02:42:48;9.67;;;4.10;;
2756;SDS011;1386;50.862;6.494;2023-05-16T02:45:14;6.73;;;3.40;;
2756;SDS011;1386;50.862;6.494;2023-05-16T02:47:41;7.37;;;3.60;;
2756;SDS011;1386;50.862;6.494;2023-05-16T02:50:10;9.97;;;3.50;;
2756;SDS011;1386;50.862;6.494;2023-05-16T02:52:36;9.03;;;3.23;;
2756;SDS011;1386;50.862;6.494;2023-05-16T02:55:04;7.50;;;3.23;;
2756;SDS011;1386;50.862;6.494;2023-05-16T02:57:31;8.63;;;3.93;;
2756;SDS011;1386;50.862;6.494;2023-05-16T02:59:58;8.60;;;3.93;;
2756;SDS011;1386;50.862;6.494;2023-05-16T03:02:25;14.00;;;4.40;;
2756;SDS011;1386;50.862;6.494;2023-05-16T03:04:52;12.13;;;4.27;;
2756;SDS011;1386;50.862;6.494;2023-05-16T03:07:20;7.37;;;3.87;;
2756;SDS011;1386;50.862;6.494;2023-05-16T03:09:47;7.10;;;3.10;;
2756;SDS011;1386;50.862;6.494;2023-05-16T03:12:14;15.00;;;3.90;;
2756;SDS011;1386;50.862;6.494;2023-05-16T03:14:40;6.57;;;3.37;;
2756;SDS011;1386;50.862;6.494;2023-05-16T03:17:07;9.80;;;3.70;;
2756;SDS011;1386;50.862;6.494;2023-05-16T03:19:34;5.83;;;3.17;;
2756;SDS011;1386;50.862;6.494;2023-05-16T03:22:01;12.43;;;3.73;;
2756;SDS011;1386;50.862;6.494;2023-05-16T03:24:29;6.50;;;3.60;;
2756;SDS011;1386;50.862;6.494;2023-05-16T03:26:56;10.73;;;4.40;;
2756;SDS011;1386;50.862;6.494;2023-05-16T03:29:23;8.80;;;3.70;;
2756;SDS011;1386;50.862;6.494;2023-05-16T03:31:51;8.97;;;3.37;;
2756;SDS011;1386;50.862;6.494;2023-05-16T03:34:17;11.37;;;3.80;;
2756;SDS011;1386;50.862;6.494;2023-05-16T03:36:44;9.27;;;2.87;;
2756;SDS011;1386;50.862;6.494;2023-05-16T03:39:13;9.70;;;3.57;;
2756;SDS011;1386;50.862;6.494;2023-05-16T03:41:42;10.93;;;3.83;;
2756;SDS011;1386;50.862;6.494;2023-05-16T03:44:09;17.80;;;3.80;;
2756;SDS011;1386;50.862;6.494;2023-05-16T03:46:36;9.97;;;3.60;;
2756;SDS011;1386;50.862;6.494;2023-05-16T03:49:02;8.60;;;3.47;;
2756;SDS011;1386;50.862;6.494;2023-05-16T03:51:29;11.03;;;3.70;;
2756;SDS011;1386;50.862;6.494;2023-05-16T03:53:57;8.57;;;3.10;;
2756;SDS011;1386;50.862;6.494;2023-05-16T03:56:24;6.53;;;2.93;;
2756;SDS011;1386;50.862;6.494;2023-05-16T03:58:52;10.60;;;3.60;;
2756;SDS011;1386;50.862;6.494;2023-05-16T04:01:19;11.43;;;4.37;;
2756;SDS011;1386;50.862;6.494;2023-05-16T04:03:46;8.70;;;2.97;;
2756;SDS011;1386;50.862;6.494;2023-05-16T04:06:14;10.13;;;4.63;;
2756;SDS011;1386;50.862;6.494;2023-05-16T04:08:41;4.73;;;3.27;;
2756;SDS011;1386;50.862;6.494;2023-05-16T04:11:09;6.87;;;3.10;;
2756;SDS011;1386;50.862;6.494;2023-05-16T04:13:36;10.57;;;3.83;;
2756;SDS011;1386;50.862;6.494;2023-05-16T04:16:04;10.33;;;3.13;;
2756;SDS011;1386;50.862;6.494;2023-05-16T04:18:31;10.80;;;4.00;;
2756;SDS011;1386;50.862;6.494;2023-05-16T04:20:58;11.80;;;3.53;;
2756;SDS011;1386;50.862;6.494;2023-05-16T04:23:25;10.73;;;3.50;;
2756;SDS011;1386;50.862;6.494;2023-05-16T04:25:52;7.90;;;3.23;;
2756;SDS011;1386;50.862;6.494;2023-05-16T04:28:19;10.30;;;2.97;;
2756;SDS011;1386;50.862;6.494;2023-05-16T04:30:46;11.93;;;2.37;;
2756;SDS011;1386;50.862;6.494;2023-05-16T04:33:15;9.30;;;2.87;;
2756;SDS011;1386;50.862;6.494;2023-05-16T04:35:42;10.93;;;3.13;;
2756;SDS011;1386;50.862;6.494;2023-05-16T04:38:09;15.17;;;2.97;;
2756;SDS011;1386;50.862;6.494;2023-05-16T04:40:36;8.67;;;3.10;;
2756;SDS011;1386;50.862;6.494;2023-05-16T04:43:04;7.27;;;2.60;;
2756;SDS011;1386;50.862;6.494;2023-05-16T04:45:31;9.03;;;3.13;;
2756;SDS011;1386;50.862;6.494;2023-05-16T04:47:58;4.97;;;2.30;;
2756;SDS011;1386;50.862;6.494;2023-05-16T04:50:26;7.53;;;2.67;;
2756;SDS011;1386;50.862;6.494;2023-05-16T04:52:53;9.63;;;3.43;;
2756;SDS011;1386;50.862;6.494;2023-05-16T04:55:20;10.07;;;3.13;;
2756;SDS011;1386;50.862;6.494;2023-05-16T04:57:47;8.53;;;2.57;;
2756;SDS011;1386;50.862;6.494;2023-05-16T05:00:14;9.80;;;3.70;;
2756;SDS011;1386;50.862;6.494;2023-05-16T05:02:41;9.53;;;3.33;;
2756;SDS011;1386;50.862;6.494;2023-05-16T05:05:08;7.37;;;2.40;;
2756;SDS011;1386;50.862;6.494;2023-05-16T05:07:37;8.40;;;3.50;;
2756;SDS011;1386;50.862;6.494;2023-05-16T05:10:05;8.77;;;2.80;;
2756;SDS011;1386;50.862;6.494;2023-05-16T05:12:32;12.77;;;3.30;;
2756;SDS011;1386;50.862;6.494;2023-05-16T05:15:00;8.13;;;3.50;;
2756;SDS011;1386;50.862;6.494;2023-05-16T05:17:26;7.43;;;2.63;;
2756;SDS011;1386;50.862;6.494;2023-05-16T05:19:53;7.13;;;2.83;;
2756;SDS011;1386;50.862;6.494;2023-05-16T05:22:20;9.80;;;3.03;;
2756;SDS011;1386;50.862;6.494;2023-05-16T05:24:48;11.60;;;2.97;;
2756;SDS011;1386;50.862;6.494;2023-05-16T05:27:15;9.10;;;3.53;;
2756;SDS011;1386;50.862;6.494;2023-05-16T05:29:42;11.53;;;3.47;;
2756;SDS011;1386;50.862;6.494;2023-05-16T05:32:09;10.73;;;2.53;;
2756;SDS011;1386;50.862;6.494;2023-05-16T05:34:36;12.23;;;3.47;;
2756;SDS011;1386;50.862;6.494;2023-05-16T05:37:03;6.00;;;2.80;;
2756;SDS011;1386;50.862;6.494;2023-05-16T05:39:30;7.33;;;2.60;;
2756;SDS011;1386;50.862;6.494;2023-05-16T05:41:58;11.13;;;3.47;;
2756;SDS011;1386;50.862;6.494;2023-05-16T05:44:26;14.60;;;3.03;;
2756;SDS011;1386;50.862;6.494;2023-05-16T05:46:53;11.97;;;3.40;;
2756;SDS011;1386;50.862;6.494;2023-05-16T05:49:21;8.43;;;3.40;;
2756;SDS011;1386;50.862;6.494;2023-05-16T05:51:48;5.40;;;2.50;;
2756;SDS011;1386;50.862;6.494;2023-05-16T05:54:16;6.97;;;3.53;;
2756;SDS011;1386;50.862;6.494;2023-05-16T05:56:43;7.57;;;3.40;;
2756;SDS011;1386;50.862;6.494;2023-05-16T05:59:11;5.20;;;2.80;;
2756;SDS011;1386;50.862;6.494;2023-05-16T06:01:38;12.50;;;3.83;;
2756;SDS011;1386;50.862;6.494;2023-05-16T06:04:05;14.30;;;3.33;;
2756;SDS011;1386;50.862;6.494;2023-05-16T06:06:32;9.63;;;2.90;;
2756;SDS011;1386;50.862;6.494;2023-05-16T06:08:59;10.77;;;2.63;;
2756;SDS011;1386;50.862;6.494;2023-05-16T06:11:25;9.27;;;3.37;;
2756;SDS011;1386;50.862;6.494;2023-05-16T06:13:52;12.43;;;3.50;;
2756;SDS011;1386;50.862;6.494;2023-05-16T06:16:23;6.60;;;2.67;;
2756;SDS011;1386;50.862;6.494;2023-05-16T06:18:51;7.90;;;2.93;;
2756;SDS011;1386;50.862;6.494;2023-05-16T06:21:18;12.23;;;2.73;;
2756;SDS011;1386;50.862;6.494;2023-05-16T06:23:44;7.57;;;3.73;;
2756;SDS011;1386;50.862;6.494;2023-05-16T06:26:11;12.80;;;4.50;;
2756;SDS011;1386;50.862;6.494;2023-05-16T06:28:38;9.57;;;2.87;;
2756;SDS011;1386;50.862;6.494;2023-05-16T06:31:05;10.03;;;3.23;;
2756;SDS011;1386;50.862;6.494;2023-05-16T06:33:33;8.93;;;3.00;;
2756;SDS011;1386;50.862;6.494;2023-05-16T06:36:00;10.40;;;2.73;;
2756;SDS011;1386;50.862;6.494;2023-05-16T06:38:27;5.53;;;2.57;;
2756;SDS011;1386;50.862;6.494;2023-05-16T06:40:53;11.27;;;2.70;;
2756;SDS011;1386;50.862;6.494;2023-05-16T06:43:20;6.13;;;2.63;;
2756;SDS011;1386;50.862;6.494;2023-05-16T06:45:47;8.30;;;2.87;;
2756;SDS011;1386;50.862;6.494;2023-05-16T06:48:14;9.10;;;2.93;;
2756;SDS011;1386;50.862;6.494;2023-05-16T06:50:42;7.07;;;2.33;;
2756;SDS011;1386;50.862;6.494;2023-05-16T06:53:13;7.30;;;2.80;;
2756;SDS011;1386;50.862;6.494;2023-05-16T06:55:39;13.70;;;3.17;;
2756;SDS011;1386;50.862;6.494;2023-05-16T06:58:06;8.40;;;2.90;;
2756;SDS011;1386;50.862;6.494;2023-05-16T07:00:33;14.70;;;4.03;;
2756;SDS011;1386;50.862;6.494;2023-05-16T07:03:00;10.13;;;2.53;;
2756;SDS011;1386;50.862;6.494;2023-05-16T07:05:27;8.43;;;2.40;;
2756;SDS011;1386;50.862;6.494;2023-05-16T07:07:56;5.00;;;2.60;;
2756;SDS011;1386;50.862;6.494;2023-05-16T07:10:22;5.87;;;2.73;;
2756;SDS011;1386;50.862;6.494;2023-05-16T07:12:51;7.63;;;2.93;;
2756;SDS011;1386;50.862;6.494;2023-05-16T07:15:18;6.33;;;2.60;;
2756;SDS011;1386;50.862;6.494;2023-05-16T07:17:47;5.70;;;2.47;;
2756;SDS011;1386;50.862;6.494;2023-05-16T07:20:19;12.90;;;3.37;;
2756;SDS011;1386;50.862;6.494;2023-05-16T07:22:46;6.23;;;2.73;;
2756;SDS011;1386;50.862;6.494;2023-05-16T07:25:14;12.50;;;3.07;;
2756;SDS011;1386;50.862;6.494;2023-05-16T07:27:43;14.37;;;2.60;;
2756;SDS011;1386;50.862;6.494;2023-05-16T07:30:19;8.90;;;2.90;;
2756;SDS011;1386;50.862;6.494;2023-05-16T07:32:46;4.60;;;2.67;;
2756;SDS011;1386;50.862;6.494;2023-05-16T07:35:13;11.23;;;2.50;;
2756;SDS011;1386;50.862;6.494;2023-05-16T07:37:40;7.93;;;2.40;;
2756;SDS011;1386;50.862;6.494;2023-05-16T07:40:08;10.87;;;3.00;;
2756;SDS011;1386;50.862;6.494;2023-05-16T07:42:36;3.87;;;2.20;;
2756;SDS011;1386;50.862;6.494;2023-05-16T07:45:04;5.90;;;2.27;;
2756;SDS011;1386;50.862;6.494;2023-05-16T07:47:32;7.83;;;2.47;;
2756;SDS011;1386;50.862;6.494;2023-05-16T07:49:59;5.80;;;2.10;;
2756;SDS011;1386;50.862;6.494;2023-05-16T07:52:26;7.70;;;2.17;;
2756;SDS011;1386;50.862;6.494;2023-05-16T07:54:53;8.20;;;2.20;;
2756;SDS011;1386;50.862;6.494;2023-05-16T07:57:20;6.43;;;2.27;;
2756;SDS011;1386;50.862;6.494;2023-05-16T07:59:48;5.03;;;1.73;;
2756;SDS011;1386;50.862;6.494;2023-05-16T08:02:16;8.70;;;2.60;;
2756;SDS011;1386;50.862;6.494;2023-05-16T08:04:43;6.20;;;2.40;;
2756;SDS011;1386;50.862;6.494;2023-05-16T08:07:12;9.00;;;3.63;;
2756;SDS011;1386;50.862;6.494;2023-05-16T08:09:39;11.20;;;2.13;;
2756;SDS011;1386;50.862;6.494;2023-05-16T08:12:06;10.73;;;2.40;;
2756;SDS011;1386;50.862;6.494;2023-05-16T08:14:34;4.93;;;1.90;;
2756;SDS011;1386;50.862;6.494;2023-05-16T08:17:02;7.20;;;2.30;;
2756;SDS011;1386;50.862;6.494;2023-05-16T08:19:30;3.07;;;1.90;;
2756;SDS011;1386;50.862;6.494;2023-05-16T08:22:00;7.37;;;1.90;;
2756;SDS011;1386;50.862;6.494;2023-05-16T08:24:30;10.83;;;2.30;;
2756;SDS011;1386;50.862;6.494;2023-05-16T08:26:57;5.50;;;2.30;;
2756;SDS011;1386;50.862;6.494;2023-05-16T08:29:24;5.60;;;2.57;;
2756;SDS011;1386;50.862;6.494;2023-05-16T08:31:54;6.33;;;1.83;;
2756;SDS011;1386;50.862;6.494;2023-05-16T08:34:22;10.93;;;2.57;;
2756;SDS011;1386;50.862;6.494;2023-05-16T08:36:49;3.83;;;2.03;;
2756;SDS011;1386;50.862;6.494;2023-05-16T08:39:16;7.73;;;2.17;;
2756;SDS011;1386;50.862;6.494;2023-05-16T08:41:43;6.80;;;2.23;;
2756;SDS011;1386;50.862;6.494;2023-05-16T08:44:10;10.93;;;2.50;;
2756;SDS011;1386;50.862;6.494;2023-05-16T08:46:44;5.53;;;2.27;;
2756;SDS011;1386;50.862;6.494;2023-05-16T08:49:16;5.80;;;2.00;;
2756;SDS011;1386;50.862;6.494;2023-05-16T08:51:46;5.97;;;1.60;;
2756;SDS011;1386;50.862;6.494;2023-05-16T08:54:13;7.03;;;1.93;;
2756;SDS011;1386;50.862;6.494;2023-05-16T08:56:42;4.93;;;1.50;;
2756;SDS011;1386;50.862;6.494;2023-05-16T08:59:10;8.17;;;2.00;;
2756;SDS011;1386;50.862;6.494;2023-05-16T09:01:37;7.10;;;1.90;;
2756;SDS011;1386;50.862;6.494;2023-05-16T09:04:06;8.70;;;1.97;;
2756;SDS011;1386;50.862;6.494;2023-05-16T09:06:34;8.13;;;2.47;;
2756;SDS011;1386;50.862;6.494;2023-05-16T09:09:02;5.73;;;1.80;;
2756;SDS011;1386;50.862;6.494;2023-05-16T09:11:32;7.83;;;2.10;;
2756;SDS011;1386;50.862;6.494;2023-05-16T09:13:59;4.27;;;2.00;;
2756;SDS011;1386;50.862;6.494;2023-05-16T09:16:25;3.93;;;1.50;;
2756;SDS011;1386;50.862;6.494;2023-05-16T09:18:53;6.30;;;2.30;;
2756;SDS011;1386;50.862;6.494;2023-05-16T09:21:21;13.47;;;1.90;;
2756;SDS011;1386;50.862;6.494;2023-05-16T09:23:48;6.67;;;1.70;;
2756;SDS011;1386;50.862;6.494;2023-05-16T09:26:17;4.00;;;1.80;;
2756;SDS011;1386;50.862;6.494;2023-05-16T09:28:46;4.90;;;1.50;;
2756;SDS011;1386;50.862;6.494;2023-05-16T09:31:19;5.13;;;1.73;;
2756;SDS011;1386;50.862;6.494;2023-05-16T09:33:47;3.10;;;1.47;;
2756;SDS011;1386;50.862;6.494;2023-05-16T09:36:15;4.57;;;2.50;;
2756;SDS011;1386;50.862;6.494;2023-05-16T09:38:42;5.00;;;1.77;;
2756;SDS011;1386;50.862;6.494;2023-05-16T09:41:09;10.03;;;2.30;;
2756;SDS011;1386;50.862;6.494;2023-05-16T09:43:38;3.70;;;1.83;;
2756;SDS011;1386;50.862;6.494;2023-05-16T09:46:07;3.90;;;1.80;;
2756;SDS011;1386;50.862;6.494;2023-05-16T09:48:34;6.80;;;1.70;;
2756;SDS011;1386;50.862;6.494;2023-05-16T09:51:02;6.17;;;1.47;;
2756;SDS011;1386;50.862;6.494;2023-05-16T09:53:31;8.60;;;2.37;;
2756;SDS011;1386;50.862;6.494;2023-05-16T09:55:59;5.27;;;1.80;;
2756;SDS011;1386;50.862;6.494;2023-05-16T09:58:27;3.27;;;1.33;;
2756;SDS011;1386;50.862;6.494;2023-05-16T10:00:57;5.20;;;1.80;;
2756;SDS011;1386;50.862;6.494;2023-05-16T10:03:24;5.50;;;1.90;;
2756;SDS011;1386;50.862;6.494;2023-05-16T10:05:51;5.50;;;1.57;;
2756;SDS011;1386;50.862;6.494;2023-05-16T10:08:19;10.70;;;1.70;;
2756;SDS011;1386;50.862;6.494;2023-05-16T10:10:48;2.60;;;1.50;;
2756;SDS011;1386;50.862;6.494;2023-05-16T10:13:18;3.63;;;1.50;;
2756;SDS011;1386;50.862;6.494;2023-05-16T10:15:46;5.40;;;1.80;;
2756;SDS011;1386;50.862;6.494;2023-05-16T10:18:15;2.80;;;1.50;;
2756;SDS011;1386;50.862;6.494;2023-05-16T10:20:44;4.93;;;1.70;;
2756;SDS011;1386;50.862;6.494;2023-05-16T10:23:15;5.17;;;1.63;;
2756;SDS011;1386;50.862;6.494;2023-05-16T10:25:43;5.00;;;1.40;;
2756;SDS011;1386;50.862;6.494;2023-05-16T10:28:11;7.23;;;1.73;;
2756;SDS011;1386;50.862;6.494;2023-05-16T10:30:39;5.97;;;1.37;;
2756;SDS011;1386;50.862;6.494;2023-05-16T10:33:08;4.70;;;1.37;;
2756;SDS011;1386;50.862;6.494;2023-05-16T10:35:38;8.50;;;1.60;;
2756;SDS011;1386;50.862;6.494;2023-05-16T10:38:05;5.53;;;2.20;;
2756;SDS011;1386;50.862;6.494;2023-05-16T10:40:34;3.60;;;1.23;;
2756;SDS011;1386;50.862;6.494;2023-05-16T10:43:03;6.17;;;1.70;;
2756;SDS011;1386;50.862;6.494;2023-05-16T10:45:31;4.23;;;1.80;;
2756;SDS011;1386;50.862;6.494;2023-05-16T10:47:59;4.83;;;1.50;;
2756;SDS011;1386;50.862;6.494;2023-05-16T10:50:32;5.67;;;1.53;;
2756;SDS011;1386;50.862;6.494;2023-05-16T10:53:14;5.10;;;1.73;;
2756;SDS011;1386;50.862;6.494;2023-05-16T10:55:48;5.97;;;1.73;;
2756;SDS011;1386;50.862;6.494;2023-05-16T10:58:38;6.50;;;1.83;;
2756;SDS011;1386;50.862;6.494;2023-05-16T11:01:17;4.93;;;1.80;;
2756;SDS011;1386;50.862;6.494;2023-05-16T11:04:05;5.43;;;1.83;;
2756;SDS011;1386;50.862;6.494;2023-05-16T11:06:34;6.00;;;1.97;;
2756;SDS011;1386;50.862;6.494;2023-05-16T11:09:18;8.13;;;1.80;;
2756;SDS011;1386;50.862;6.494;2023-05-16T11:11:52;5.23;;;1.80;;
2756;SDS011;1386;50.862;6.494;2023-05-16T11:14:21;5.77;;;1.70;;
2756;SDS011;1386;50.862;6.494;2023-05-16T11:16:49;4.33;;;1.50;;
2756;SDS011;1386;50.862;6.494;2023-05-16T11:19:29;6.70;;;2.10;;
2756;SDS011;1386;50.862;6.494;2023-05-16T11:24:52;3.40;;;1.30;;
2756;SDS011;1386;50.862;6.494;2023-05-16T11:27:21;3.67;;;1.20;;
2756;SDS011;1386;50.862;6.494;2023-05-16T11:29:54;4.10;;;1.37;;
2756;SDS011;1386;50.862;6.494;2023-05-16T11:32:24;3.07;;;1.40;;
2756;SDS011;1386;50.862;6.494;2023-05-16T11:34:50;2.40;;;1.30;;
2756;SDS011;1386;50.862;6.494;2023-05-16T11:37:26;4.80;;;1.50;;
2756;SDS011;1386;50.862;6.494;2023-05-16T11:39:57;5.67;;;1.90;;
2756;SDS011;1386;50.862;6.494;2023-05-16T11:42:27;6.47;;;1.07;;
2756;SDS011;1386;50.862;6.494;2023-05-16T11:45:02;4.20;;;1.47;;
2756;SDS011;1386;50.862;6.494;2023-05-16T11:47:30;2.73;;;1.50;;
2756;SDS011;1386;50.862;6.494;2023-05-16T11:49:57;4.20;;;1.48;;
2756;SDS011;1386;50.862;6.494;2023-05-16T11:52:24;2.27;;;1.37;;
2756;SDS011;1386;50.862;6.494;2023-05-16T11:54:52;3.80;;;1.77;;
2756;SDS011;1386;50.862;6.494;2023-05-16T11:57:20;6.03;;;1.37;;
2756;SDS011;1386;50.862;6.494;2023-05-16T11:59:47;3.80;;;1.47;;
2756;SDS011;1386;50.862;6.494;2023-05-16T12:02:14;3.53;;;1.40;;
2756;SDS011;1386;50.862;6.494;2023-05-16T12:04:41;2.40;;;1.00;;
2756;SDS011;1386;50.862;6.494;2023-05-16T12:07:11;5.60;;;1.80;;
2756;SDS011;1386;50.862;6.494;2023-05-16T12:09:39;2.70;;;1.40;;
2756;SDS011;1386;50.862;6.494;2023-05-16T12:12:06;3.57;;;1.10;;
2756;SDS011;1386;50.862;6.494;2023-05-16T12:14:34;5.73;;;1.90;;
2756;SDS011;1386;50.862;6.494;2023-05-16T12:17:01;1.57;;;1.10;;
2756;SDS011;1386;50.862;6.494;2023-05-16T12:19:29;3.20;;;1.33;;
2756;SDS011;1386;50.862;6.494;2023-05-16T12:21:56;4.50;;;1.67;;
2756;SDS011;1386;50.862;6.494;2023-05-16T12:24:28;2.10;;;1.30;;
2756;SDS011;1386;50.862;6.494;2023-05-16T12:26:55;2.93;;;1.57;;
2756;SDS011;1386;50.862;6.494;2023-05-16T12:29:23;5.53;;;1.77;;
2756;SDS011;1386;50.862;6.494;2023-05-16T12:31:52;4.90;;;1.63;;
2756;SDS011;1386;50.862;6.494;2023-05-16T12:34:19;3.00;;;1.33;;
2756;SDS011;1386;50.862;6.494;2023-05-16T12:36:49;3.30;;;1.37;;
2756;SDS011;1386;50.862;6.494;2023-05-16T12:39:17;5.33;;;1.50;;
2756;SDS011;1386;50.862;6.494;2023-05-16T12:41:44;3.53;;;1.50;;
2756;SDS011;1386;50.862;6.494;2023-05-16T12:44:11;4.87;;;1.50;;
2756;SDS011;1386;50.862;6.494;2023-05-16T12:46:41;4.03;;;1.40;;
2756;SDS011;1386;50.862;6.494;2023-05-16T12:49:10;4.20;;;1.43;;
2756;SDS011;1386;50.862;6.494;2023-05-16T12:51:37;2.23;;;1.20;;
2756;SDS011;1386;50.862;6.494;2023-05-16T12:54:08;4.77;;;1.73;;
2756;SDS011;1386;50.862;6.494;2023-05-16T12:56:36;3.00;;;1.00;;
2756;SDS011;1386;50.862;6.494;2023-05-16T12:59:04;6.13;;;1.40;;
2756;SDS011;1386;50.862;6.494;2023-05-16T13:01:43;1.93;;;0.90;;
2756;SDS011;1386;50.862;6.494;2023-05-16T13:04:16;2.77;;;1.10;;
2756;SDS011;1386;50.862;6.494;2023-05-16T13:06:47;1.13;;;0.70;;
2756;SDS011;1386;50.862;6.494;2023-05-16T13:09:14;1.87;;;1.00;;
2756;SDS011;1386;50.862;6.494;2023-05-16T13:11:42;2.37;;;1.13;;
2756;SDS011;1386;50.862;6.494;2023-05-16T13:14:13;2.77;;;1.97;;
2756;SDS011;1386;50.862;6.494;2023-05-16T13:16:41;2.13;;;1.20;;
2756;SDS011;1386;50.862;6.494;2023-05-16T13:19:10;2.20;;;1.80;;
2756;SDS011;1386;50.862;6.494;2023-05-16T13:21:39;2.60;;;0.97;;
2756;SDS011;1386;50.862;6.494;2023-05-16T13:24:06;1.63;;;1.00;;
2756;SDS011;1386;50.862;6.494;2023-05-16T13:26:33;3.93;;;1.10;;
2756;SDS011;1386;50.862;6.494;2023-05-16T13:29:03;3.50;;;1.20;;
2756;SDS011;1386;50.862;6.494;2023-05-16T13:31:29;3.10;;;1.10;;
2756;SDS011;1386;50.862;6.494;2023-05-16T13:33:57;3.40;;;1.10;;
2756;SDS011;1386;50.862;6.494;2023-05-16T13:36:24;4.20;;;1.20;;
2756;SDS011;1386;50.862;6.494;2023-05-16T13:38:52;4.23;;;1.17;;
2756;SDS011;1386;50.862;6.494;2023-05-16T13:41:19;2.63;;;1.43;;
2756;SDS011;1386;50.862;6.494;2023-05-16T13:43:47;3.53;;;1.60;;
2756;SDS011;1386;50.862;6.494;2023-05-16T13:46:15;8.70;;;2.83;;
2756;SDS011;1386;50.862;6.494;2023-05-16T13:48:42;4.87;;;1.90;;
2756;SDS011;1386;50.862;6.494;2023-05-16T13:51:09;3.63;;;1.17;;
2756;SDS011;1386;50.862;6.494;2023-05-16T13:53:36;3.00;;;1.20;;
2756;SDS011;1386;50.862;6.494;2023-05-16T13:58:59;6.00;;;1.60;;
2756;SDS011;1386;50.862;6.494;2023-05-16T14:01:26;3.10;;;1.50;;
2756;SDS011;1386;50.862;6.494;2023-05-16T14:03:53;2.90;;;1.43;;
2756;SDS011;1386;50.862;6.494;2023-05-16T14:06:20;4.73;;;1.40;;
2756;SDS011;1386;50.862;6.494;2023-05-16T14:08:47;2.43;;;1.10;;
2756;SDS011;1386;50.862;6.494;2023-05-16T14:11:14;5.63;;;1.53;;
2756;SDS011;1386;50.862;6.494;2023-05-16T14:13:44;3.10;;;0.90;;
2756;SDS011;1386;50.862;6.494;2023-05-16T14:16:12;2.07;;;1.00;;
2756;SDS011;1386;50.862;6.494;2023-05-16T14:18:39;2.87;;;1.33;;
2756;SDS011;1386;50.862;6.494;2023-05-16T14:21:06;5.03;;;1.80;;
2756;SDS011;1386;50.862;6.494;2023-05-16T14:23:33;2.50;;;1.20;;
2756;SDS011;1386;50.862;6.494;2023-05-16T14:26:00;2.33;;;1.20;;
2756;SDS011;1386;50.862;6.494;2023-05-16T14:28:28;1.70;;;1.17;;
2756;SDS011;1386;50.862;6.494;2023-05-16T14:30:58;3.17;;;1.07;;
2756;SDS011;1386;50.862;6.494;2023-05-16T14:33:25;4.30;;;1.57;;
2756;SDS011;1386;50.862;6.494;2023-05-16T14:35:52;3.47;;;1.17;;
2756;SDS011;1386;50.862;6.494;2023-05-16T14:38:19;3.53;;;1.83;;
2756;SDS011;1386;50.862;6.494;2023-05-16T14:40:46;8.13;;;1.50;;
2756;SDS011;1386;50.862;6.494;2023-05-16T14:43:13;1.40;;;1.07;;
2756;SDS011;1386;50.862;6.494;2023-05-16T14:45:40;1.83;;;0.90;;
2756;SDS011;1386;50.862;6.494;2023-05-16T14:48:08;2.40;;;1.40;;
2756;SDS011;1386;50.862;6.494;2023-05-16T14:50:35;2.90;;;1.20;;
2756;SDS011;1386;50.862;6.494;2023-05-16T14:53:02;7.80;;;1.77;;
2756;SDS011;1386;50.862;6.494;2023-05-16T14:55:29;3.67;;;1.30;;
2756;SDS011;1386;50.862;6.494;2023-05-16T14:57:56;1.97;;;1.50;;
2756;SDS011;1386;50.862;6.494;2023-05-16T15:00:23;3.87;;;1.40;;
2756;SDS011;1386;50.862;6.494;2023-05-16T15:02:51;2.23;;;1.20;;
2756;SDS011;1386;50.862;6.494;2023-05-16T15:05:19;2.77;;;1.60;;
2756;SDS011;1386;50.862;6.494;2023-05-16T15:07:46;1.60;;;1.20;;
2756;SDS011;1386;50.862;6.494;2023-05-16T15:10:13;3.90;;;1.40;;
2756;SDS011;1386;50.862;6.494;2023-05-16T15:12:40;4.47;;;1.40;;
2756;SDS011;1386;50.862;6.494;2023-05-16T15:15:08;3.63;;;1.50;;
2756;SDS011;1386;50.862;6.494;2023-05-16T15:17:36;1.80;;;1.10;;
2756;SDS011;1386;50.862;6.494;2023-05-16T15:20:04;5.87;;;1.73;;
2756;SDS011;1386;50.862;6.494;2023-05-16T15:22:33;3.40;;;1.53;;
2756;SDS011;1386;50.862;6.494;2023-05-16T15:25:00;2.77;;;1.70;;